sensor_id;sensor_type;location;lat;lon;timestamp;P1;P2;P0
55485;PMS5003;71262;-25.924;28.194;2023-09-07T00:01:40;26;20;
55485;PMS5003;71262;-25.924;28.194;2023-09-07T00:04:06;18;13;
55485;PMS5003;71262;-25.924;28.194;2023-09-07T00:06:31;2;2;
55485;PMS5003;71262;-25.924;28.194;2023-09-07T00:08:56;1;1;
55485;PMS5003;71262;-25.924;28.194;2023-09-07T00:11:21;2;1;
55485;PMS5003;71262;-25.924;28.194;2023-09-07T00:13:46;1;1;
55485;PMS5003;71262;-25.924;28.194;2023-09-07T00:16:11;2;1;
55485;PMS5003;71262;-25.924;28.194;2023-09-07T00:18:36;2;2;
55485;PMS5003;71262;-25.924;28.194;2023-09-07T00:21:01;1;1;
55485;PMS5003;71262;-25.924;28.194;2023-09-07T00:23:27;0;0;
55485;PMS5003;71262;-25.924;28.194;2023-09-07T00:25:52;1;1;
55485;PMS5003;71262;-25.924;28.194;2023-09-07T00:28:17;0;0;
55485;PMS5003;71262;-25.924;28.194;2023-09-07T00:30:42;1;1;
55485;PMS5003;71262;-25.924;28.194;2023-09-07T00:33:07;2;1;
55485;PMS5003;71262;-25.924;28.194;2023-09-07T00:35:32;1;1;
55485;PMS5003;71262;-25.924;28.194;2023-09-07T00:37:57;1;1;
55485;PMS5003;71262;-25.924;28.194;2023-09-07T00:40:23;2;1;
55485;PMS5003;71262;-25.924;28.194;2023-09-07T00:42:48;1;1;
55485;PMS5003;71262;-25.924;28.194;2023-09-07T00:45:13;1;1;
55485;PMS5003;71262;-25.924;28.194;2023-09-07T00:47:38;1;0;
55485;PMS5003;71262;-25.924;28.194;2023-09-07T00:50:03;1;1;
55485;PMS5003;71262;-25.924;28.194;2023-09-07T00:52:28;1;1;
55485;PMS5003;71262;-25.924;28.194;2023-09-07T00:54:53;0;0;
55485;PMS5003;71262;-25.924;28.194;2023-09-07T00:57:18;1;1;
55485;PMS5003;71262;-25.924;28.194;2023-09-07T00:59:44;3;1;
55485;PMS5003;71262;-25.924;28.194;2023-09-07T01:02:09;1;1;
55485;PMS5003;71262;-25.924;28.194;2023-09-07T01:04:34;1;1;
55485;PMS5003;71262;-25.924;28.194;2023-09-07T01:07:00;2;2;
55485;PMS5003;71262;-25.924;28.194;2023-09-07T01:09:24;2;1;
55485;PMS5003;71262;-25.924;28.194;2023-09-07T01:11:49;2;2;
55485;PMS5003;71262;-25.924;28.194;2023-09-07T01:14:14;1;1;
55485;PMS5003;71262;-25.924;28.194;2023-09-07T01:16:39;2;2;
55485;PMS5003;71262;-25.924;28.194;2023-09-07T01:19:05;1;1;
55485;PMS5003;71262;-25.924;28.194;2023-09-07T01:21:32;1;1;
55485;PMS5003;71262;-25.924;28.194;2023-09-07T01:23:55;1;1;
55485;PMS5003;71262;-25.924;28.194;2023-09-07T01:26:20;2;2;
55485;PMS5003;71262;-25.924;28.194;2023-09-07T01:28:45;1;1;
55485;PMS5003;71262;-25.924;28.194;2023-09-07T01:31:10;2;2;
55485;PMS5003;71262;-25.924;28.194;2023-09-07T01:33:35;1;1;
55485;PMS5003;71262;-25.924;28.194;2023-09-07T01:36:01;2;2;
55485;PMS5003;71262;-25.924;28.194;2023-09-07T01:38:25;0;0;
55485;PMS5003;71262;-25.924;28.194;2023-09-07T01:40:51;2;1;
55485;PMS5003;71262;-25.924;28.194;2023-09-07T01:43:16;2;2;
55485;PMS5003;71262;-25.924;28.194;2023-09-07T01:45:41;1;1;
55485;PMS5003;71262;-25.924;28.194;2023-09-07T01:48:08;2;2;
55485;PMS5003;71262;-25.924;28.194;2023-09-07T01:50:31;2;2;
55485;PMS5003;71262;-25.924;28.194;2023-09-07T01:52:56;4;3;
55485;PMS5003;71262;-25.924;28.194;2023-09-07T01:55:21;3;3;
55485;PMS5003;71262;-25.924;28.194;2023-09-07T01:57:46;3;2;
55485;PMS5003;71262;-25.924;28.194;2023-09-07T02:00:12;2;2;
55485;PMS5003;71262;-25.924;28.194;2023-09-07T02:02:37;1;1;
55485;PMS5003;71262;-25.924;28.194;2023-09-07T02:05:02;2;2;
55485;PMS5003;71262;-25.924;28.194;2023-09-07T02:07:27;2;2;
55485;PMS5003;71262;-25.924;28.194;2023-09-07T02:09:52;3;2;
55485;PMS5003;71262;-25.924;28.194;2023-09-07T02:12:17;2;2;
55485;PMS5003;71262;-25.924;28.194;2023-09-07T02:14:42;3;2;
55485;PMS5003;71262;-25.924;28.194;2023-09-07T02:17:07;2;2;
55485;PMS5003;71262;-25.924;28.194;2023-09-07T02:19:33;2;2;
55485;PMS5003;71262;-25.924;28.194;2023-09-07T02:21:58;2;2;
55485;PMS5003;71262;-25.924;28.194;2023-09-07T02:24:23;4;3;
55485;PMS5003;71262;-25.924;28.194;2023-09-07T02:26:48;3;3;
55485;PMS5003;71262;-25.924;28.194;2023-09-07T02:29:13;2;1;
55485;PMS5003;71262;-25.924;28.194;2023-09-07T02:31:38;3;3;
55485;PMS5003;71262;-25.924;28.194;2023-09-07T02:34:03;4;4;
55485;PMS5003;71262;-25.924;28.194;2023-09-07T02:36:28;2;1;
55485;PMS5003;71262;-25.924;28.194;2023-09-07T02:38:54;2;2;
55485;PMS5003;71262;-25.924;28.194;2023-09-07T02:41:19;3;3;
55485;PMS5003;71262;-25.924;28.194;2023-09-07T02:43:44;2;2;
55485;PMS5003;71262;-25.924;28.194;2023-09-07T02:46:09;1;1;
55485;PMS5003;71262;-25.924;28.194;2023-09-07T02:48:34;4;4;
55485;PMS5003;71262;-25.924;28.194;2023-09-07T02:50:59;4;4;
55485;PMS5003;71262;-25.924;28.194;2023-09-07T02:53:24;4;4;
55485;PMS5003;71262;-25.924;28.194;2023-09-07T02:55:49;2;2;
55485;PMS5003;71262;-25.924;28.194;2023-09-07T02:58:15;3;3;
55485;PMS5003;71262;-25.924;28.194;2023-09-07T03:00:43;4;4;
55485;PMS5003;71262;-25.924;28.194;2023-09-07T03:03:05;2;2;
55485;PMS5003;71262;-25.924;28.194;2023-09-07T03:05:30;3;2;
55485;PMS5003;71262;-25.924;28.194;2023-09-07T03:07:55;1;1;
55485;PMS5003;71262;-25.924;28.194;2023-09-07T03:10:20;3;3;
55485;PMS5003;71262;-25.924;28.194;2023-09-07T03:12:45;5;4;
55485;PMS5003;71262;-25.924;28.194;2023-09-07T03:15:11;3;3;
55485;PMS5003;71262;-25.924;28.194;2023-09-07T03:17:36;2;2;
55485;PMS5003;71262;-25.924;28.194;2023-09-07T03:20:01;4;3;
55485;PMS5003;71262;-25.924;28.194;2023-09-07T03:22:26;1;1;
55485;PMS5003;71262;-25.924;28.194;2023-09-07T03:24:51;2;2;
55485;PMS5003;71262;-25.924;28.194;2023-09-07T03:27:17;6;4;
55485;PMS5003;71262;-25.924;28.194;2023-09-07T03:29:41;3;3;
55485;PMS5003;71262;-25.924;28.194;2023-09-07T03:32:07;28;27;
55485;PMS5003;71262;-25.924;28.194;2023-09-07T03:34:32;5;5;
55485;PMS5003;71262;-25.924;28.194;2023-09-07T03:36:57;43;29;
55485;PMS5003;71262;-25.924;28.194;2023-09-07T03:39:22;19;14;
55485;PMS5003;71262;-25.924;28.194;2023-09-07T03:41:47;15;13;
55485;PMS5003;71262;-25.924;28.194;2023-09-07T03:44:12;113;85;
55485;PMS5003;71262;-25.924;28.194;2023-09-07T03:46:38;46;37;
55485;PMS5003;71262;-25.924;28.194;2023-09-07T03:49:04;20;18;
55485;PMS5003;71262;-25.924;28.194;2023-09-07T03:51:29;12;10;
55485;PMS5003;71262;-25.924;28.194;2023-09-07T03:53:54;11;11;
55485;PMS5003;71262;-25.924;28.194;2023-09-07T03:56:19;6;6;
55485;PMS5003;71262;-25.924;28.194;2023-09-07T03:58:44;6;5;
55485;PMS5003;71262;-25.924;28.194;2023-09-07T04:01:09;7;5;
55485;PMS5003;71262;-25.924;28.194;2023-09-07T04:03:35;11;8;
55485;PMS5003;71262;-25.924;28.194;2023-09-07T04:06:00;6;5;
55485;PMS5003;71262;-25.924;28.194;2023-09-07T04:08:25;5;5;
55485;PMS5003;71262;-25.924;28.194;2023-09-07T04:10:50;7;6;
55485;PMS5003;71262;-25.924;28.194;2023-09-07T04:13:15;5;4;
55485;PMS5003;71262;-25.924;28.194;2023-09-07T04:15:42;22;18;
55485;PMS5003;71262;-25.924;28.194;2023-09-07T04:18:05;13;7;
55485;PMS5003;71262;-25.924;28.194;2023-09-07T04:20:31;6;6;
55485;PMS5003;71262;-25.924;28.194;2023-09-07T04:22:56;16;12;
55485;PMS5003;71262;-25.924;28.194;2023-09-07T04:25:21;27;15;
55485;PMS5003;71262;-25.924;28.194;2023-09-07T04:27:47;7;7;
55485;PMS5003;71262;-25.924;28.194;2023-09-07T04:30:12;117;84;
55485;PMS5003;71262;-25.924;28.194;2023-09-07T04:32:37;18;16;
55485;PMS5003;71262;-25.924;28.194;2023-09-07T04:35:03;6;6;
55485;PMS5003;71262;-25.924;28.194;2023-09-07T04:37:28;5;5;
55485;PMS5003;71262;-25.924;28.194;2023-09-07T04:39:53;6;6;
55485;PMS5003;71262;-25.924;28.194;2023-09-07T04:42:19;6;6;
55485;PMS5003;71262;-25.924;28.194;2023-09-07T04:44:44;5;4;
55485;PMS5003;71262;-25.924;28.194;2023-09-07T04:47:09;4;4;
55485;PMS5003;71262;-25.924;28.194;2023-09-07T04:49:34;31;26;
55485;PMS5003;71262;-25.924;28.194;2023-09-07T04:51:59;5;4;
55485;PMS5003;71262;-25.924;28.194;2023-09-07T04:54:24;3;3;
55485;PMS5003;71262;-25.924;28.194;2023-09-07T04:56:49;2;2;
55485;PMS5003;71262;-25.924;28.194;2023-09-07T04:59:14;3;2;
55485;PMS5003;71262;-25.924;28.194;2023-09-07T05:01:39;2;2;
55485;PMS5003;71262;-25.924;28.194;2023-09-07T05:04:05;3;3;
55485;PMS5003;71262;-25.924;28.194;2023-09-07T05:06:30;4;3;
55485;PMS5003;71262;-25.924;28.194;2023-09-07T05:08:56;8;7;
55485;PMS5003;71262;-25.924;28.194;2023-09-07T05:11:21;3;3;
55485;PMS5003;71262;-25.924;28.194;2023-09-07T05:13:46;5;5;
55485;PMS5003;71262;-25.924;28.194;2023-09-07T05:16:11;3;2;
55485;PMS5003;71262;-25.924;28.194;2023-09-07T05:18:36;8;6;
55485;PMS5003;71262;-25.924;28.194;2023-09-07T05:23:27;6;6;
55485;PMS5003;71262;-25.924;28.194;2023-09-07T05:25:53;6;6;
55485;PMS5003;71262;-25.924;28.194;2023-09-07T05:28:17;5;5;
55485;PMS5003;71262;-25.924;28.194;2023-09-07T05:30:42;6;6;
55485;PMS5003;71262;-25.924;28.194;2023-09-07T05:33:08;6;5;
55485;PMS5003;71262;-25.924;28.194;2023-09-07T05:35:32;7;7;
55485;PMS5003;71262;-25.924;28.194;2023-09-07T05:37:57;4;4;
55485;PMS5003;71262;-25.924;28.194;2023-09-07T05:40:22;5;5;
55485;PMS5003;71262;-25.924;28.194;2023-09-07T05:42:47;7;5;
55485;PMS5003;71262;-25.924;28.194;2023-09-07T05:45:12;2;1;
55485;PMS5003;71262;-25.924;28.194;2023-09-07T05:47:38;4;4;
55485;PMS5003;71262;-25.924;28.194;2023-09-07T05:50:04;2;2;
55485;PMS5003;71262;-25.924;28.194;2023-09-07T05:52:30;3;3;
55485;PMS5003;71262;-25.924;28.194;2023-09-07T05:54:55;4;4;
55485;PMS5003;71262;-25.924;28.194;2023-09-07T05:57:21;3;3;
55485;PMS5003;71262;-25.924;28.194;2023-09-07T05:59:47;4;3;
55485;PMS5003;71262;-25.924;28.194;2023-09-07T06:02:13;4;2;
55485;PMS5003;71262;-25.924;28.194;2023-09-07T06:04:39;5;3;
55485;PMS5003;71262;-25.924;28.194;2023-09-07T06:07:05;3;3;
55485;PMS5003;71262;-25.924;28.194;2023-09-07T06:09:30;3;2;
55485;PMS5003;71262;-25.924;28.194;2023-09-07T06:11:56;3;3;
55485;PMS5003;71262;-25.924;28.194;2023-09-07T06:14:22;1;1;
55485;PMS5003;71262;-25.924;28.194;2023-09-07T06:16:48;5;4;
55485;PMS5003;71262;-25.924;28.194;2023-09-07T06:19:14;3;3;
55485;PMS5003;71262;-25.924;28.194;2023-09-07T06:21:40;3;3;
55485;PMS5003;71262;-25.924;28.194;2023-09-07T06:24:06;2;2;
55485;PMS5003;71262;-25.924;28.194;2023-09-07T06:26:31;6;3;
55485;PMS5003;71262;-25.924;28.194;2023-09-07T06:28:57;3;2;
55485;PMS5003;71262;-25.924;28.194;2023-09-07T06:31:23;21;14;
55485;PMS5003;71262;-25.924;28.194;2023-09-07T06:33:48;21;12;
55485;PMS5003;71262;-25.924;28.194;2023-09-07T06:36:14;13;10;
55485;PMS5003;71262;-25.924;28.194;2023-09-07T06:38:39;15;12;
55485;PMS5003;71262;-25.924;28.194;2023-09-07T06:41:05;13;12;
55485;PMS5003;71262;-25.924;28.194;2023-09-07T06:43:30;20;14;
55485;PMS5003;71262;-25.924;28.194;2023-09-07T06:46:01;22;15;
55485;PMS5003;71262;-25.924;28.194;2023-09-07T06:48:21;17;15;
55485;PMS5003;71262;-25.924;28.194;2023-09-07T06:50:47;26;21;
55485;PMS5003;71262;-25.924;28.194;2023-09-07T06:53:12;30;25;
55485;PMS5003;71262;-25.924;28.194;2023-09-07T06:55:37;31;25;
55485;PMS5003;71262;-25.924;28.194;2023-09-07T06:58:03;33;29;
55485;PMS5003;71262;-25.924;28.194;2023-09-07T07:00:29;27;25;
55485;PMS5003;71262;-25.924;28.194;2023-09-07T07:02:53;29;26;
55485;PMS5003;71262;-25.924;28.194;2023-09-07T07:05:19;32;25;
55485;PMS5003;71262;-25.924;28.194;2023-09-07T07:07:44;23;22;
55485;PMS5003;71262;-25.924;28.194;2023-09-07T07:10:09;29;21;
55485;PMS5003;71262;-25.924;28.194;2023-09-07T07:12:35;22;20;
55485;PMS5003;71262;-25.924;28.194;2023-09-07T07:15:00;21;19;
55485;PMS5003;71262;-25.924;28.194;2023-09-07T07:17:25;22;18;
55485;PMS5003;71262;-25.924;28.194;2023-09-07T07:19:51;22;20;
55485;PMS5003;71262;-25.924;28.194;2023-09-07T07:22:16;21;20;
55485;PMS5003;71262;-25.924;28.194;2023-09-07T07:24:41;28;22;
55485;PMS5003;71262;-25.924;28.194;2023-09-07T07:27:06;25;22;
55485;PMS5003;71262;-25.924;28.194;2023-09-07T07:29:32;21;19;
55485;PMS5003;71262;-25.924;28.194;2023-09-07T07:31:57;21;18;
55485;PMS5003;71262;-25.924;28.194;2023-09-07T07:34:23;20;20;
55485;PMS5003;71262;-25.924;28.194;2023-09-07T07:36:48;18;16;
55485;PMS5003;71262;-25.924;28.194;2023-09-07T07:39:21;18;17;
55485;PMS5003;71262;-25.924;28.194;2023-09-07T07:41:39;17;15;
55485;PMS5003;71262;-25.924;28.194;2023-09-07T07:44:05;14;12;
55485;PMS5003;71262;-25.924;28.194;2023-09-07T07:46:31;13;12;
55485;PMS5003;71262;-25.924;28.194;2023-09-07T07:48:57;11;11;
55485;PMS5003;71262;-25.924;28.194;2023-09-07T07:51:23;10;10;
55485;PMS5003;71262;-25.924;28.194;2023-09-07T07:53:49;11;10;
55485;PMS5003;71262;-25.924;28.194;2023-09-07T07:56:15;11;10;
55485;PMS5003;71262;-25.924;28.194;2023-09-07T07:58:40;11;11;
55485;PMS5003;71262;-25.924;28.194;2023-09-07T08:03:31;17;16;
55485;PMS5003;71262;-25.924;28.194;2023-09-07T08:05:56;13;12;
55485;PMS5003;71262;-25.924;28.194;2023-09-07T08:08:22;11;11;
55485;PMS5003;71262;-25.924;28.194;2023-09-07T08:10:48;9;8;
55485;PMS5003;71262;-25.924;28.194;2023-09-07T08:13:14;6;6;
55485;PMS5003;71262;-25.924;28.194;2023-09-07T08:15:39;7;7;
55485;PMS5003;71262;-25.924;28.194;2023-09-07T08:18:05;7;5;
55485;PMS5003;71262;-25.924;28.194;2023-09-07T08:20:31;5;5;
55485;PMS5003;71262;-25.924;28.194;2023-09-07T08:22:57;5;4;
55485;PMS5003;71262;-25.924;28.194;2023-09-07T08:25:23;6;5;
55485;PMS5003;71262;-25.924;28.194;2023-09-07T08:27:48;7;5;
55485;PMS5003;71262;-25.924;28.194;2023-09-07T08:30:15;3;3;
55485;PMS5003;71262;-25.924;28.194;2023-09-07T08:32:40;3;3;
55485;PMS5003;71262;-25.924;28.194;2023-09-07T08:35:08;3;3;
55485;PMS5003;71262;-25.924;28.194;2023-09-07T08:37:32;3;3;
55485;PMS5003;71262;-25.924;28.194;2023-09-07T08:39:58;4;3;
55485;PMS5003;71262;-25.924;28.194;2023-09-07T08:42:23;3;3;
55485;PMS5003;71262;-25.924;28.194;2023-09-07T08:44:49;1;1;
55485;PMS5003;71262;-25.924;28.194;2023-09-07T08:47:15;2;2;
55485;PMS5003;71262;-25.924;28.194;2023-09-07T08:49:41;3;2;
55485;PMS5003;71262;-25.924;28.194;2023-09-07T08:52:06;2;2;
55485;PMS5003;71262;-25.924;28.194;2023-09-07T08:54:32;3;3;
55485;PMS5003;71262;-25.924;28.194;2023-09-07T08:56:58;2;2;
55485;PMS5003;71262;-25.924;28.194;2023-09-07T08:59:24;2;2;
55485;PMS5003;71262;-25.924;28.194;2023-09-07T09:01:50;1;1;
55485;PMS5003;71262;-25.924;28.194;2023-09-07T09:04:15;2;1;
55485;PMS5003;71262;-25.924;28.194;2023-09-07T09:06:41;3;3;
55485;PMS5003;71262;-25.924;28.194;2023-09-07T09:09:07;2;2;
55485;PMS5003;71262;-25.924;28.194;2023-09-07T09:11:33;3;2;
55485;PMS5003;71262;-25.924;28.194;2023-09-07T09:13:59;7;3;
55485;PMS5003;71262;-25.924;28.194;2023-09-07T09:16:24;2;2;
55485;PMS5003;71262;-25.924;28.194;2023-09-07T09:18:50;3;2;
55485;PMS5003;71262;-25.924;28.194;2023-09-07T09:21:16;2;2;
55485;PMS5003;71262;-25.924;28.194;2023-09-07T09:23:43;1;1;
55485;PMS5003;71262;-25.924;28.194;2023-09-07T09:26:08;1;1;
55485;PMS5003;71262;-25.924;28.194;2023-09-07T09:28:34;3;2;
55485;PMS5003;71262;-25.924;28.194;2023-09-07T09:30:59;2;1;
55485;PMS5003;71262;-25.924;28.194;2023-09-07T09:33:25;3;3;
55485;PMS5003;71262;-25.924;28.194;2023-09-07T09:35:51;2;2;
55485;PMS5003;71262;-25.924;28.194;2023-09-07T09:38:18;3;3;
55485;PMS5003;71262;-25.924;28.194;2023-09-07T09:40:42;3;2;
55485;PMS5003;71262;-25.924;28.194;2023-09-07T09:43:08;1;1;
55485;PMS5003;71262;-25.924;28.194;2023-09-07T09:45:34;2;2;
55485;PMS5003;71262;-25.924;28.194;2023-09-07T09:48:00;5;5;
55485;PMS5003;71262;-25.924;28.194;2023-09-07T09:50:26;8;8;
55485;PMS5003;71262;-25.924;28.194;2023-09-07T09:52:52;6;6;
55485;PMS5003;71262;-25.924;28.194;2023-09-07T09:55:17;11;10;
55485;PMS5003;71262;-25.924;28.194;2023-09-07T09:57:43;21;20;
55485;PMS5003;71262;-25.924;28.194;2023-09-07T10:00:09;30;29;
55485;PMS5003;71262;-25.924;28.194;2023-09-07T10:02:34;22;22;
55485;PMS5003;71262;-25.924;28.194;2023-09-07T10:04:58;33;33;
55485;PMS5003;71262;-25.924;28.194;2023-09-07T10:09:49;59;59;
55485;PMS5003;71262;-25.924;28.194;2023-09-07T10:12:15;72;71;
55485;PMS5003;71262;-25.924;28.194;2023-09-07T10:14:39;67;67;
55485;PMS5003;71262;-25.924;28.194;2023-09-07T10:17:04;37;35;
55485;PMS5003;71262;-25.924;28.194;2023-09-07T10:19:29;47;47;
55485;PMS5003;71262;-25.924;28.194;2023-09-07T10:21:56;43;42;
55485;PMS5003;71262;-25.924;28.194;2023-09-07T10:26:45;2;2;
55485;PMS5003;71262;-25.924;28.194;2023-09-07T10:29:11;3;3;
55485;PMS5003;71262;-25.924;28.194;2023-09-07T10:31:37;3;2;
55485;PMS5003;71262;-25.924;28.194;2023-09-07T10:36:28;1;1;
55485;PMS5003;71262;-25.924;28.194;2023-09-07T10:38:55;1;1;
55485;PMS5003;71262;-25.924;28.194;2023-09-07T10:41:20;2;2;
55485;PMS5003;71262;-25.924;28.194;2023-09-07T10:43:47;1;1;
55485;PMS5003;71262;-25.924;28.194;2023-09-07T10:46:12;1;1;
55485;PMS5003;71262;-25.924;28.194;2023-09-07T10:48:38;0;0;
55485;PMS5003;71262;-25.924;28.194;2023-09-07T10:51:03;0;0;
55485;PMS5003;71262;-25.924;28.194;2023-09-07T10:53:30;0;0;
55485;PMS5003;71262;-25.924;28.194;2023-09-07T10:55:57;1;1;
55485;PMS5003;71262;-25.924;28.194;2023-09-07T10:58:25;0;0;
55485;PMS5003;71262;-25.924;28.194;2023-09-07T11:00:47;1;0;
55485;PMS5003;71262;-25.924;28.194;2023-09-07T11:03:13;0;0;
55485;PMS5003;71262;-25.924;28.194;2023-09-07T11:05:38;0;0;
55485;PMS5003;71262;-25.924;28.194;2023-09-07T11:08:05;0;0;
55485;PMS5003;71262;-25.924;28.194;2023-09-07T11:10:32;0;0;
55485;PMS5003;71262;-25.924;28.194;2023-09-07T11:12:56;0;0;
55485;PMS5003;71262;-25.924;28.194;2023-09-07T11:15:22;0;0;
55485;PMS5003;71262;-25.924;28.194;2023-09-07T11:17:47;0;0;
55485;PMS5003;71262;-25.924;28.194;2023-09-07T11:20:13;0;0;
55485;PMS5003;71262;-25.924;28.194;2023-09-07T11:22:39;0;0;
55485;PMS5003;71262;-25.924;28.194;2023-09-07T11:25:05;0;0;
55485;PMS5003;71262;-25.924;28.194;2023-09-07T11:27:31;0;0;
55485;PMS5003;71262;-25.924;28.194;2023-09-07T11:29:57;0;0;
55485;PMS5003;71262;-25.924;28.194;2023-09-07T11:32:23;0;0;
55485;PMS5003;71262;-25.924;28.194;2023-09-07T11:34:49;0;0;
55485;PMS5003;71262;-25.924;28.194;2023-09-07T11:37:14;0;0;
55485;PMS5003;71262;-25.924;28.194;2023-09-07T11:39:40;0;0;
55485;PMS5003;71262;-25.924;28.194;2023-09-07T11:42:06;0;0;
55485;PMS5003;71262;-25.924;28.194;2023-09-07T11:44:32;0;0;
55485;PMS5003;71262;-25.924;28.194;2023-09-07T11:46:57;0;0;
55485;PMS5003;71262;-25.924;28.194;2023-09-07T11:49:23;0;0;
55485;PMS5003;71262;-25.924;28.194;2023-09-07T11:51:49;0;0;
55485;PMS5003;71262;-25.924;28.194;2023-09-07T11:54:15;0;0;
55485;PMS5003;71262;-25.924;28.194;2023-09-07T11:56:41;0;0;
55485;PMS5003;71262;-25.924;28.194;2023-09-07T11:59:06;0;0;
55485;PMS5003;71262;-25.924;28.194;2023-09-07T12:01:32;0;0;
55485;PMS5003;71262;-25.924;28.194;2023-09-07T12:03:58;0;0;
55485;PMS5003;71262;-25.924;28.194;2023-09-07T12:06:24;0;0;
55485;PMS5003;71262;-25.924;28.194;2023-09-07T12:11:16;0;0;
55485;PMS5003;71262;-25.924;28.194;2023-09-07T12:13:42;0;0;
55485;PMS5003;71262;-25.924;28.194;2023-09-07T12:16:07;0;0;
55485;PMS5003;71262;-25.924;28.194;2023-09-07T12:18:33;0;0;
55485;PMS5003;71262;-25.924;28.194;2023-09-07T12:20:59;0;0;
55485;PMS5003;71262;-25.924;28.194;2023-09-07T12:23:25;0;0;
55485;PMS5003;71262;-25.924;28.194;2023-09-07T12:25:51;0;0;
55485;PMS5003;71262;-25.924;28.194;2023-09-07T12:28:17;0;0;
55485;PMS5003;71262;-25.924;28.194;2023-09-07T12:30:42;0;0;
55485;PMS5003;71262;-25.924;28.194;2023-09-07T12:33:09;0;0;
55485;PMS5003;71262;-25.924;28.194;2023-09-07T12:35:34;0;0;
55485;PMS5003;71262;-25.924;28.194;2023-09-07T12:38:00;0;0;
55485;PMS5003;71262;-25.924;28.194;2023-09-07T12:40:26;0;0;
55485;PMS5003;71262;-25.924;28.194;2023-09-07T12:42:51;0;0;
55485;PMS5003;71262;-25.924;28.194;2023-09-07T12:45:17;0;0;
55485;PMS5003;71262;-25.924;28.194;2023-09-07T12:47:43;0;0;
55485;PMS5003;71262;-25.924;28.194;2023-09-07T12:50:09;0;0;
55485;PMS5003;71262;-25.924;28.194;2023-09-07T12:52:35;0;0;
55485;PMS5003;71262;-25.924;28.194;2023-09-07T12:55:01;0;0;
55485;PMS5003;71262;-25.924;28.194;2023-09-07T12:57:26;0;0;
55485;PMS5003;71262;-25.924;28.194;2023-09-07T12:59:52;0;0;
55485;PMS5003;71262;-25.924;28.194;2023-09-07T13:02:18;0;0;
55485;PMS5003;71262;-25.924;28.194;2023-09-07T13:04:44;0;0;
55485;PMS5003;71262;-25.924;28.194;2023-09-07T13:07:10;0;0;
55485;PMS5003;71262;-25.924;28.194;2023-09-07T13:09:36;0;0;
55485;PMS5003;71262;-25.924;28.194;2023-09-07T13:12:02;0;0;
55485;PMS5003;71262;-25.924;28.194;2023-09-07T13:14:27;0;0;
55485;PMS5003;71262;-25.924;28.194;2023-09-07T13:16:53;0;0;
55485;PMS5003;71262;-25.924;28.194;2023-09-07T13:19:19;0;0;
55485;PMS5003;71262;-25.924;28.194;2023-09-07T13:21:45;0;0;
55485;PMS5003;71262;-25.924;28.194;2023-09-07T13:24:11;0;0;
55485;PMS5003;71262;-25.924;28.194;2023-09-07T13:26:37;0;0;
55485;PMS5003;71262;-25.924;28.194;2023-09-07T13:29:02;0;0;
55485;PMS5003;71262;-25.924;28.194;2023-09-07T13:31:28;0;0;
55485;PMS5003;71262;-25.924;28.194;2023-09-07T13:33:54;0;0;
55485;PMS5003;71262;-25.924;28.194;2023-09-07T13:36:20;0;0;
55485;PMS5003;71262;-25.924;28.194;2023-09-07T13:38:46;0;0;
55485;PMS5003;71262;-25.924;28.194;2023-09-07T13:41:12;0;0;
55485;PMS5003;71262;-25.924;28.194;2023-09-07T13:43:37;0;0;
55485;PMS5003;71262;-25.924;28.194;2023-09-07T13:46:03;0;0;
55485;PMS5003;71262;-25.924;28.194;2023-09-07T13:48:29;0;0;
55485;PMS5003;71262;-25.924;28.194;2023-09-07T13:50:55;0;0;
55485;PMS5003;71262;-25.924;28.194;2023-09-07T13:53:21;0;0;
55485;PMS5003;71262;-25.924;28.194;2023-09-07T13:55:47;0;0;
55485;PMS5003;71262;-25.924;28.194;2023-09-07T13:58:13;0;0;
55485;PMS5003;71262;-25.924;28.194;2023-09-07T14:00:38;0;0;
55485;PMS5003;71262;-25.924;28.194;2023-09-07T14:03:04;0;0;
55485;PMS5003;71262;-25.924;28.194;2023-09-07T14:05:30;0;0;
55485;PMS5003;71262;-25.924;28.194;2023-09-07T14:07:56;0;0;
55485;PMS5003;71262;-25.924;28.194;2023-09-07T14:10:22;0;0;
55485;PMS5003;71262;-25.924;28.194;2023-09-07T14:12:48;0;0;
55485;PMS5003;71262;-25.924;28.194;2023-09-07T14:15:13;0;0;
55485;PMS5003;71262;-25.924;28.194;2023-09-07T14:17:39;0;0;
55485;PMS5003;71262;-25.924;28.194;2023-09-07T14:20:06;0;0;
55485;PMS5003;71262;-25.924;28.194;2023-09-07T14:22:31;0;0;
55485;PMS5003;71262;-25.924;28.194;2023-09-07T14:24:57;0;0;
55485;PMS5003;71262;-25.924;28.194;2023-09-07T14:27:23;0;0;
55485;PMS5003;71262;-25.924;28.194;2023-09-07T14:29:48;0;0;
55485;PMS5003;71262;-25.924;28.194;2023-09-07T14:32:14;0;0;
55485;PMS5003;71262;-25.924;28.194;2023-09-07T14:34:40;0;0;
55485;PMS5003;71262;-25.924;28.194;2023-09-07T14:37:06;0;0;
55485;PMS5003;71262;-25.924;28.194;2023-09-07T14:39:32;0;0;
55485;PMS5003;71262;-25.924;28.194;2023-09-07T14:41:58;0;0;
55485;PMS5003;71262;-25.924;28.194;2023-09-07T14:44:24;0;0;
55485;PMS5003;71262;-25.924;28.194;2023-09-07T14:46:51;0;0;
55485;PMS5003;71262;-25.924;28.194;2023-09-07T14:49:15;0;0;
55485;PMS5003;71262;-25.924;28.194;2023-09-07T14:51:41;0;0;
55485;PMS5003;71262;-25.924;28.194;2023-09-07T14:54:07;0;0;
55485;PMS5003;71262;-25.924;28.194;2023-09-07T14:56:33;0;0;
55485;PMS5003;71262;-25.924;28.194;2023-09-07T14:58:59;0;0;
55485;PMS5003;71262;-25.924;28.194;2023-09-07T15:01:25;0;0;
55485;PMS5003;71262;-25.924;28.194;2023-09-07T15:03:50;0;0;
55485;PMS5003;71262;-25.924;28.194;2023-09-07T15:06:16;0;0;
55485;PMS5003;71262;-25.924;28.194;2023-09-07T15:08:42;0;0;
55485;PMS5003;71262;-25.924;28.194;2023-09-07T15:11:08;0;0;
55485;PMS5003;71262;-25.924;28.194;2023-09-07T15:13:34;0;0;
55485;PMS5003;71262;-25.924;28.194;2023-09-07T15:16:00;0;0;
55485;PMS5003;71262;-25.924;28.194;2023-09-07T15:18:25;0;0;
55485;PMS5003;71262;-25.924;28.194;2023-09-07T15:20:51;0;0;
55485;PMS5003;71262;-25.924;28.194;2023-09-07T15:23:17;0;0;
55485;PMS5003;71262;-25.924;28.194;2023-09-07T15:25:43;0;0;
55485;PMS5003;71262;-25.924;28.194;2023-09-07T15:28:09;0;0;
55485;PMS5003;71262;-25.924;28.194;2023-09-07T15:30:35;0;0;
55485;PMS5003;71262;-25.924;28.194;2023-09-07T15:33:00;0;0;
55485;PMS5003;71262;-25.924;28.194;2023-09-07T15:35:27;0;0;
55485;PMS5003;71262;-25.924;28.194;2023-09-07T15:37:52;0;0;
55485;PMS5003;71262;-25.924;28.194;2023-09-07T15:40:18;0;0;
55485;PMS5003;71262;-25.924;28.194;2023-09-07T15:42:44;0;0;
55485;PMS5003;71262;-25.924;28.194;2023-09-07T15:45:10;0;0;
55485;PMS5003;71262;-25.924;28.194;2023-09-07T15:47:36;0;0;
55485;PMS5003;71262;-25.924;28.194;2023-09-07T15:50:01;1;0;
55485;PMS5003;71262;-25.924;28.194;2023-09-07T15:52:27;1;0;
55485;PMS5003;71262;-25.924;28.194;2023-09-07T15:54:53;4;1;
55485;PMS5003;71262;-25.924;28.194;2023-09-07T15:57:19;0;0;
55485;PMS5003;71262;-25.924;28.194;2023-09-07T15:59:45;2;1;
55485;PMS5003;71262;-25.924;28.194;2023-09-07T16:02:11;0;0;
55485;PMS5003;71262;-25.924;28.194;2023-09-07T16:04:37;1;0;
55485;PMS5003;71262;-25.924;28.194;2023-09-07T16:07:02;0;0;
55485;PMS5003;71262;-25.924;28.194;2023-09-07T16:09:28;0;0;
55485;PMS5003;71262;-25.924;28.194;2023-09-07T16:11:54;0;0;
55485;PMS5003;71262;-25.924;28.194;2023-09-07T16:14:20;0;0;